Brighton, South Carolina
Current Conditions -  °F | °C
As of 12:35 PM on Thursday 30 Oct 2014 (Local Time) from KJYL Reporting Station
Clear Clear  
Wind Chill: 74°   Ceiling: Unl
Heat Index: 74°   Visibility: 10mi
Dew Point: 57°   Wind: 6mph
Humidity: 55%   Direction: 40°NE
Pressure: 30.01"   Gusts: NA
Location:  32.6001°N, 81.2393°W
Report Text: KJYL 301635Z AUTO 04005KT 10SM CLR 24/14 A3001 RMK AO2 T02350139
Loading
Personal Weather Stations






























Interactive Weather Map
Tropical Storm Tracking
New forecast layout! Learn more

10-Day Weather Forecast

Advertisements
Track Severe Weather on mobile